createdAt,value
2018-04-08T00:01:01.017Z,6.97
2018-04-08T00:03:27.405Z,6.85
2018-04-08T00:05:53.738Z,6.87
2018-04-08T00:08:20.097Z,7.06
2018-04-08T00:10:46.413Z,7.53
2018-04-08T00:13:12.846Z,7.50
2018-04-08T00:15:39.306Z,7.30
2018-04-08T00:18:05.726Z,7.19
2018-04-08T00:20:32.120Z,7.00
2018-04-08T00:22:58.506Z,7.04
2018-04-08T00:25:24.906Z,7.19
2018-04-08T00:27:51.298Z,6.93
2018-04-08T00:30:17.957Z,6.83
2018-04-08T00:32:44.310Z,6.82
2018-04-08T00:35:10.864Z,6.84
2018-04-08T00:37:37.234Z,6.79
2018-04-08T00:40:03.645Z,6.62
2018-04-08T00:42:30.047Z,6.73
2018-04-08T00:44:56.441Z,6.79
2018-04-08T00:47:22.903Z,6.86
2018-04-08T00:49:49.285Z,6.98
2018-04-08T00:52:15.787Z,6.74
2018-04-08T00:54:42.320Z,6.65
2018-04-08T00:57:08.798Z,6.75
2018-04-08T00:59:35.209Z,6.60
2018-04-08T01:02:01.551Z,6.42
2018-04-08T01:04:28.090Z,6.60
2018-04-08T01:06:54.495Z,6.54
2018-04-08T01:09:20.902Z,6.47
2018-04-08T01:11:47.341Z,6.35
2018-04-08T01:14:13.776Z,6.28
2018-04-08T01:16:40.252Z,6.43
2018-04-08T01:19:06.638Z,6.39
2018-04-08T01:21:33.062Z,6.50
2018-04-08T01:23:59.502Z,6.47
2018-04-08T01:26:25.928Z,6.33
2018-04-08T01:28:52.409Z,6.16
2018-04-08T01:31:18.784Z,6.07
2018-04-08T01:33:45.231Z,6.01
2018-04-08T01:36:11.684Z,6.10
2018-04-08T01:38:38.043Z,6.11
2018-04-08T01:41:04.447Z,6.04
2018-04-08T01:43:30.952Z,6.00
2018-04-08T01:45:57.295Z,6.03
2018-04-08T01:48:23.703Z,6.05
2018-04-08T01:50:50.109Z,6.02
2018-04-08T01:53:16.526Z,6.02
2018-04-08T01:55:42.881Z,6.09
2018-04-08T01:58:09.316Z,6.15
2018-04-08T02:00:35.663Z,6.33
2018-04-08T02:03:02.006Z,6.33
2018-04-08T02:05:28.416Z,6.30
2018-04-08T02:07:54.845Z,6.39
2018-04-08T02:10:21.292Z,6.32
2018-04-08T02:12:47.681Z,6.44
2018-04-08T02:15:14.025Z,6.36
2018-04-08T02:17:40.323Z,6.11
2018-04-08T02:20:06.732Z,5.91
2018-04-08T02:22:33.125Z,5.74
2018-04-08T02:24:59.570Z,5.81
2018-04-08T02:27:25.953Z,5.95
2018-04-08T02:29:52.326Z,5.91
2018-04-08T02:32:18.644Z,6.01
2018-04-08T02:34:45.101Z,6.00
2018-04-08T02:37:11.479Z,5.95
2018-04-08T02:39:37.933Z,6.02
2018-04-08T02:42:04.275Z,5.96
2018-04-08T02:44:30.650Z,6.06
2018-04-08T02:46:56.958Z,6.06
2018-04-08T02:49:23.390Z,5.98
2018-04-08T02:51:49.732Z,6.10
2018-04-08T02:54:16.143Z,6.22
2018-04-08T02:56:42.548Z,6.12
2018-04-08T02:59:08.889Z,6.19
2018-04-08T03:01:35.232Z,6.25
2018-04-08T03:04:01.762Z,6.04
2018-04-08T03:06:28.113Z,6.06
2018-04-08T03:08:54.457Z,6.20
2018-04-08T03:11:20.841Z,6.27
2018-04-08T03:13:47.186Z,6.38
2018-04-08T03:16:13.534Z,6.44
2018-04-08T03:18:39.959Z,6.45
2018-04-08T03:21:06.395Z,6.46
2018-04-08T03:23:32.725Z,6.20
2018-04-08T03:25:59.092Z,6.13
2018-04-08T03:28:25.482Z,6.01
2018-04-08T03:30:51.838Z,5.91
2018-04-08T03:33:18.183Z,6.13
2018-04-08T03:35:44.600Z,6.39
2018-04-08T03:38:10.999Z,6.38
2018-04-08T03:40:37.439Z,6.24
2018-04-08T03:43:03.796Z,6.32
2018-04-08T03:45:30.170Z,6.52
2018-04-08T03:47:56.549Z,6.23
2018-04-08T03:50:22.908Z,6.26
2018-04-08T03:52:49.240Z,6.34
2018-04-08T03:55:15.774Z,6.20
2018-04-08T03:57:42.117Z,6.11
2018-04-08T04:00:08.502Z,6.19
2018-04-08T04:02:35.045Z,6.23
2018-04-08T04:05:02.629Z,6.47
2018-04-08T04:07:29.300Z,6.31
2018-04-08T04:09:55.689Z,6.35
2018-04-08T04:12:22.086Z,6.48
2018-04-08T04:14:48.562Z,6.31
2018-04-08T04:17:15.018Z,5.90
2018-04-08T04:19:53.747Z,5.75
2018-04-08T04:22:32.507Z,5.83
2018-04-08T04:25:11.012Z,6.12
2018-04-08T04:27:37.680Z,6.51
2018-04-08T04:30:04.154Z,7.02
2018-04-08T04:32:30.547Z,8.01
2018-04-08T04:34:57.012Z,8.88
2018-04-08T04:37:23.430Z,9.71
2018-04-08T04:39:49.776Z,10.53
2018-04-08T04:42:16.231Z,11.50
2018-04-08T04:44:42.874Z,11.92
2018-04-08T04:47:09.259Z,12.70
2018-04-08T04:49:35.610Z,12.83
2018-04-08T04:52:01.996Z,13.65
2018-04-08T04:54:28.687Z,13.56
2018-04-08T04:56:55.387Z,14.33
2018-04-08T04:59:21.807Z,14.81
2018-04-08T05:01:48.303Z,15.10
2018-04-08T05:04:14.828Z,15.63
2018-04-08T05:06:41.238Z,15.33
2018-04-08T05:09:07.594Z,15.69
2018-04-08T05:11:33.987Z,14.88
2018-04-08T05:14:00.531Z,14.24
2018-04-08T05:16:26.963Z,14.79
2018-04-08T05:18:53.357Z,15.26
2018-04-08T05:21:19.818Z,15.09
2018-04-08T05:23:46.265Z,15.15
2018-04-08T05:26:12.751Z,14.77
2018-04-08T05:28:39.182Z,14.37
2018-04-08T05:31:05.595Z,14.92
2018-04-08T05:33:31.932Z,15.90
2018-04-08T05:36:00.237Z,16.26
2018-04-08T05:38:27.739Z,16.44
2018-04-08T05:40:54.948Z,16.70
2018-04-08T05:43:21.418Z,16.25
2018-04-08T05:45:47.790Z,16.18
2018-04-08T05:48:14.372Z,17.26
2018-04-08T05:50:40.915Z,16.94
2018-04-08T05:53:07.320Z,16.78
2018-04-08T05:55:33.751Z,17.05
2018-04-08T05:58:00.508Z,16.83
2018-04-08T06:00:26.987Z,16.58
2018-04-08T06:02:53.565Z,16.61
2018-04-08T06:05:20.374Z,16.47
2018-04-08T06:07:47.160Z,17.13
2018-04-08T06:10:13.693Z,16.19
2018-04-08T06:12:40.265Z,15.75
2018-04-08T06:15:07.009Z,15.48
2018-04-08T06:17:35.539Z,15.90
2018-04-08T06:20:02.345Z,15.89
2018-04-08T06:22:29.220Z,15.57
2018-04-08T06:24:55.986Z,16.00
2018-04-08T06:27:22.786Z,15.67
2018-04-08T06:29:49.333Z,16.39
2018-04-08T06:32:17.204Z,16.16
2018-04-08T06:34:44.251Z,16.46
2018-04-08T06:37:10.791Z,15.97
2018-04-08T06:39:37.311Z,15.69
2018-04-08T06:42:03.821Z,16.23
2018-04-08T06:44:30.324Z,16.83
2018-04-08T06:46:56.825Z,16.88
2018-04-08T06:49:23.664Z,16.84
2018-04-08T06:51:50.275Z,17.43
2018-04-08T06:54:16.748Z,16.56
2018-04-08T06:56:43.267Z,16.90
2018-04-08T06:59:09.669Z,17.30
2018-04-08T07:01:36.156Z,17.32
2018-04-08T07:04:02.935Z,17.89
2018-04-08T07:06:29.391Z,17.92
2018-04-08T07:08:55.882Z,17.79
2018-04-08T07:11:22.463Z,18.27
2018-04-08T07:13:49.611Z,17.73
2018-04-08T07:16:16.426Z,17.88
2018-04-08T07:18:42.977Z,17.53
2018-04-08T07:21:10.103Z,17.55
2018-04-08T07:23:36.842Z,17.79
2018-04-08T07:26:04.179Z,17.51
2018-04-08T07:28:30.664Z,17.56
2018-04-08T07:30:57.149Z,17.47
2018-04-08T07:33:23.736Z,17.37
2018-04-08T07:35:50.198Z,18.24
2018-04-08T07:38:16.704Z,18.79
2018-04-08T07:40:43.192Z,18.81
2018-04-08T07:43:09.835Z,18.76
2018-04-08T07:45:36.687Z,19.15
2018-04-08T07:48:03.244Z,18.61
2018-04-08T07:50:29.821Z,17.78
2018-04-08T07:52:56.422Z,18.02
2018-04-08T07:55:25.303Z,18.23
2018-04-08T07:57:52.219Z,17.87
2018-04-08T08:00:18.953Z,17.51
2018-04-08T08:02:45.495Z,17.83
2018-04-08T08:05:12.338Z,18.01
2018-04-08T08:07:39.033Z,18.03
2018-04-08T08:10:05.791Z,18.62
2018-04-08T08:12:32.866Z,18.97
2018-04-08T08:14:59.572Z,19.30
2018-04-08T08:17:26.175Z,19.40
2018-04-08T08:19:53.012Z,19.70
2018-04-08T08:22:20.325Z,19.31
2018-04-08T08:24:46.933Z,19.37
2018-04-08T08:27:13.419Z,19.57
2018-04-08T08:29:41.923Z,19.99
2018-04-08T08:32:08.598Z,19.72
2018-04-08T08:34:35.173Z,19.57
2018-04-08T08:37:02.350Z,19.77
2018-04-08T08:39:29.346Z,20.05
2018-04-08T08:41:55.884Z,19.85
2018-04-08T08:44:22.492Z,20.15
2018-04-08T08:46:50.091Z,20.44
2018-04-08T08:49:16.625Z,20.60
2018-04-08T08:51:43.110Z,20.37
2018-04-08T08:54:09.555Z,20.64
2018-04-08T08:56:36.245Z,21.02
2018-04-08T08:59:03.042Z,20.87
2018-04-08T09:01:29.638Z,21.10
2018-04-08T09:03:56.454Z,21.07
2018-04-08T09:06:22.910Z,21.11
2018-04-08T09:08:49.471Z,20.86
2018-04-08T09:11:15.893Z,20.05
2018-04-08T09:13:42.408Z,20.74
2018-04-08T09:16:09.219Z,21.72
2018-04-08T09:18:35.744Z,21.31
2018-04-08T09:24:13.595Z,20.75
2018-04-08T09:26:40.344Z,20.64
2018-04-08T09:29:06.842Z,21.36
2018-04-08T09:31:33.537Z,20.90
2018-04-08T09:34:00.418Z,20.42
2018-04-08T09:36:27.122Z,20.63
2018-04-08T09:38:53.493Z,21.14
2018-04-08T09:41:20.495Z,21.73
2018-04-08T09:43:46.986Z,22.16
2018-04-08T09:46:13.375Z,21.69
2018-04-08T09:48:39.873Z,21.70
2018-04-08T09:51:06.663Z,22.31
2018-04-08T09:53:33.982Z,21.68
2018-04-08T09:56:00.621Z,21.78
2018-04-08T09:58:27.805Z,21.58
2018-04-08T10:01:14.058Z,21.59
2018-04-08T10:03:49.008Z,21.26
2018-04-08T10:06:15.611Z,22.03
2018-04-08T10:08:42.524Z,22.31
2018-04-08T10:11:09.120Z,22.83
2018-04-08T10:13:35.649Z,22.59
2018-04-08T10:16:02.459Z,22.76
2018-04-08T10:18:28.961Z,22.75
2018-04-08T10:20:55.522Z,22.64
2018-04-08T10:23:22.143Z,22.16
2018-04-08T10:25:48.674Z,22.29
2018-04-08T10:28:15.328Z,22.66
2018-04-08T10:30:42.012Z,22.81
2018-04-08T10:33:08.381Z,22.57
2018-04-08T10:35:34.902Z,22.14
2018-04-08T10:38:01.406Z,22.46
2018-04-08T10:40:28.121Z,22.84
2018-04-08T10:42:54.562Z,22.89
2018-04-08T10:45:21.003Z,23.19
2018-04-08T10:47:47.596Z,22.37
2018-04-08T10:50:14.219Z,22.49
2018-04-08T10:52:41.351Z,21.80
2018-04-08T10:55:08.919Z,22.22
2018-04-08T10:57:35.961Z,21.96
2018-04-08T11:00:02.776Z,21.94
2018-04-08T11:02:30.103Z,21.56
2018-04-08T11:04:56.653Z,21.27
2018-04-08T11:07:24.092Z,21.72
2018-04-08T11:09:50.698Z,21.62
2018-04-08T11:12:17.806Z,21.93
2018-04-08T11:14:44.425Z,21.91
2018-04-08T11:17:10.884Z,21.76
2018-04-08T11:19:37.465Z,21.38
2018-04-08T11:22:04.249Z,21.42
2018-04-08T11:24:30.818Z,21.52
2018-04-08T11:26:57.449Z,21.15
2018-04-08T11:29:23.926Z,21.48
2018-04-08T11:31:50.291Z,21.67
2018-04-08T11:34:16.838Z,21.61
2018-04-08T11:36:44.944Z,21.28
2018-04-08T11:39:11.383Z,21.29
2018-04-08T11:41:37.855Z,21.78
2018-04-08T11:44:04.759Z,21.37
2018-04-08T11:46:31.263Z,21.59
2018-04-08T11:48:57.684Z,21.54
2018-04-08T11:51:24.535Z,21.64
2018-04-08T11:53:51.200Z,21.72
2018-04-08T11:56:17.662Z,21.59
2018-04-08T11:58:44.200Z,21.61
2018-04-08T12:01:10.792Z,21.13
2018-04-08T12:03:37.486Z,21.26
2018-04-08T12:06:04.140Z,21.26
2018-04-08T12:08:30.729Z,21.24
2018-04-08T12:10:57.562Z,21.54
2018-04-08T12:13:24.212Z,21.47
2018-04-08T12:15:50.801Z,21.53
2018-04-08T12:18:17.297Z,21.46
2018-04-08T12:20:43.741Z,21.61
2018-04-08T12:23:10.591Z,21.38
2018-04-08T12:25:37.135Z,21.54
2018-04-08T12:28:04.489Z,21.18
2018-04-08T12:30:31.198Z,21.21
2018-04-08T12:32:57.702Z,21.18
2018-04-08T12:35:24.087Z,21.21
2018-04-08T12:37:50.584Z,21.10
2018-04-08T12:40:17.113Z,21.22
2018-04-08T12:42:43.698Z,21.24
2018-04-08T12:45:10.912Z,21.25
2018-04-08T12:47:37.498Z,21.21
2018-04-08T12:50:04.154Z,21.23
2018-04-08T12:52:30.906Z,21.06
2018-04-08T12:54:58.137Z,21.14
2018-04-08T12:57:24.688Z,21.10
2018-04-08T12:59:51.157Z,21.22
2018-04-08T13:02:17.839Z,21.05
2018-04-08T13:04:44.729Z,20.87
2018-04-08T13:07:11.288Z,20.84
2018-04-08T13:09:38.952Z,20.75
2018-04-08T13:12:05.487Z,21.03
2018-04-08T13:14:32.645Z,21.27
2018-04-08T13:16:59.327Z,20.86
2018-04-08T13:19:26.120Z,20.83
2018-04-08T13:21:52.983Z,20.70
2018-04-08T13:24:19.473Z,20.84
2018-04-08T13:26:46.147Z,20.66
2018-04-08T13:29:12.770Z,20.70
2018-04-08T13:31:39.221Z,20.69
2018-04-08T13:34:05.646Z,20.59
2018-04-08T13:36:32.223Z,20.69
2018-04-08T13:38:58.864Z,20.77
2018-04-08T13:41:25.353Z,20.70
2018-04-08T13:43:51.843Z,20.62
2018-04-08T13:46:18.312Z,20.59
2018-04-08T13:48:44.676Z,20.66
2018-04-08T13:51:11.192Z,20.75
2018-04-08T13:53:37.992Z,20.88
2018-04-08T13:56:04.512Z,20.68
2018-04-08T13:58:31.058Z,20.62
2018-04-08T14:00:57.860Z,20.61
2018-04-08T14:03:24.539Z,20.52
2018-04-08T14:05:51.081Z,20.51
2018-04-08T14:08:17.600Z,20.58
2018-04-08T14:10:44.067Z,20.44
2018-04-08T14:13:10.689Z,20.26
2018-04-08T14:15:37.225Z,20.24
2018-04-08T14:18:03.910Z,20.22
2018-04-08T14:20:30.424Z,20.26
2018-04-08T14:22:57.019Z,20.17
2018-04-08T14:25:23.639Z,20.18
2018-04-08T14:27:50.164Z,20.18
2018-04-08T14:30:16.697Z,20.12
2018-04-08T14:32:43.104Z,20.11
2018-04-08T14:35:09.940Z,19.99
2018-04-08T14:37:36.491Z,19.98
2018-04-08T14:40:04.086Z,19.92
2018-04-08T14:42:31.257Z,19.78
2018-04-08T14:44:58.443Z,19.77
2018-04-08T14:47:25.230Z,19.77
2018-04-08T14:49:53.963Z,19.69
2018-04-08T14:52:21.021Z,19.72
2018-04-08T14:54:47.713Z,19.69
2018-04-08T14:57:14.292Z,19.73
2018-04-08T14:59:40.807Z,19.62
2018-04-08T15:02:07.980Z,19.53
2018-04-08T15:04:34.833Z,19.47
2018-04-08T15:07:01.314Z,19.46
2018-04-08T15:09:28.221Z,19.43
2018-04-08T15:11:55.090Z,19.43
2018-04-08T15:14:21.701Z,19.38
2018-04-08T15:16:48.302Z,19.38
2018-04-08T15:19:14.920Z,19.25
2018-04-08T15:21:41.457Z,19.18
2018-04-08T15:24:08.213Z,19.17
2018-04-08T15:26:34.745Z,19.11
2018-04-08T15:29:01.497Z,19.05
2018-04-08T15:31:27.917Z,18.99
2018-04-08T15:33:54.554Z,18.86
2018-04-08T15:36:21.280Z,18.78
2018-04-08T15:38:47.867Z,18.77
2018-04-08T15:41:14.710Z,18.73
2018-04-08T15:43:41.296Z,18.76
2018-04-08T15:46:07.822Z,18.66
2018-04-08T15:48:34.515Z,18.54
2018-04-08T15:51:01.063Z,18.45
2018-04-08T15:53:27.507Z,18.41
2018-04-08T15:55:54.266Z,18.19
2018-04-08T15:58:21.115Z,17.98
2018-04-08T16:00:48.589Z,17.90
2018-04-08T16:03:16.834Z,17.95
2018-04-08T16:05:43.662Z,17.77
2018-04-08T16:08:10.074Z,17.74
2018-04-08T16:10:36.708Z,17.59
2018-04-08T16:13:03.346Z,17.37
2018-04-08T16:15:29.812Z,17.26
2018-04-08T16:17:56.477Z,17.29
2018-04-08T16:20:23.870Z,17.10
2018-04-08T16:22:50.962Z,17.18
2018-04-08T16:25:17.411Z,17.06
2018-04-08T16:27:43.970Z,16.94
2018-04-08T16:30:10.651Z,16.72
2018-04-08T16:32:37.326Z,16.81
2018-04-08T16:35:03.970Z,16.84
2018-04-08T16:37:31.048Z,16.62
2018-04-08T16:39:57.644Z,16.61
2018-04-08T16:42:24.351Z,16.65
2018-04-08T16:44:50.704Z,16.37
2018-04-08T16:47:17.309Z,16.25
2018-04-08T16:49:43.750Z,16.47
2018-04-08T16:52:10.109Z,16.53
2018-04-08T16:54:36.637Z,16.48
2018-04-08T16:57:03.321Z,16.25
2018-04-08T16:59:29.837Z,16.33
2018-04-08T17:01:56.836Z,16.14
2018-04-08T17:04:23.376Z,15.94
2018-04-08T17:06:49.923Z,16.10
2018-04-08T17:09:16.422Z,16.10
2018-04-08T17:11:43.077Z,15.96
2018-04-08T17:14:09.851Z,15.58
2018-04-08T17:16:36.392Z,15.15
2018-04-08T17:19:03.777Z,14.65
2018-04-08T17:21:30.401Z,14.21
2018-04-08T17:23:56.863Z,13.72
2018-04-08T17:26:23.546Z,13.50
2018-04-08T17:28:51.467Z,13.89
2018-04-08T17:31:18.343Z,14.24
2018-04-08T17:33:45.472Z,14.66
2018-04-08T17:36:12.211Z,15.61
2018-04-08T17:38:39.700Z,15.34
2018-04-08T17:41:06.405Z,15.39
2018-04-08T17:43:34.312Z,14.80
2018-04-08T17:46:00.939Z,14.12
2018-04-08T17:48:27.433Z,14.24
2018-04-08T17:50:53.813Z,14.66
2018-04-08T17:53:20.543Z,14.56
2018-04-08T17:55:47.224Z,15.21
2018-04-08T17:58:13.717Z,15.62
2018-04-08T18:00:40.677Z,15.51
2018-04-08T18:03:07.503Z,14.89
2018-04-08T18:05:34.025Z,15.13
2018-04-08T18:08:00.553Z,15.12
2018-04-08T18:10:27.059Z,14.77
2018-04-08T18:13:00.421Z,14.12
2018-04-08T18:15:29.083Z,13.55
2018-04-08T18:17:55.534Z,13.19
2018-04-08T18:20:24.186Z,13.06
2018-04-08T18:22:51.388Z,13.03
2018-04-08T18:25:18.348Z,12.80
2018-04-08T18:27:44.913Z,14.14
2018-04-08T18:30:11.523Z,13.78
2018-04-08T18:32:38.066Z,13.78
2018-04-08T18:35:04.521Z,14.00
2018-04-08T18:37:31.420Z,13.34
2018-04-08T18:40:02.521Z,13.64
2018-04-08T18:42:30.529Z,13.02
2018-04-08T18:44:56.975Z,12.82
2018-04-08T18:47:23.444Z,12.46
2018-04-08T18:49:50.012Z,12.38
2018-04-08T18:52:16.427Z,12.02
2018-04-08T18:54:42.907Z,12.77
2018-04-08T18:57:09.506Z,13.13
2018-04-08T18:59:36.328Z,13.02
2018-04-08T19:02:03.043Z,12.65
2018-04-08T19:04:30.307Z,12.10
2018-04-08T19:06:57.184Z,12.19
2018-04-08T19:09:23.916Z,11.90
2018-04-08T19:11:50.731Z,12.11
2018-04-08T19:14:19.300Z,12.25
2018-04-08T19:16:51.007Z,11.93
2018-04-08T19:19:22.008Z,11.54
2018-04-08T19:21:48.989Z,11.30
2018-04-08T19:24:19.534Z,11.17
2018-04-08T19:26:47.277Z,11.31
2018-04-08T19:29:13.951Z,11.17
2018-04-08T19:31:40.464Z,10.88
2018-04-08T19:34:07.127Z,10.86
2018-04-08T19:36:33.847Z,10.77
2018-04-08T19:39:00.335Z,10.88
2018-04-08T19:41:26.829Z,10.68
2018-04-08T19:43:53.559Z,10.62
2018-04-08T19:46:20.174Z,10.57
2018-04-08T19:48:46.925Z,10.49
2018-04-08T19:51:13.555Z,10.45
2018-04-08T19:53:40.170Z,10.53
2018-04-08T19:56:06.910Z,10.61
2018-04-08T19:58:33.490Z,10.39
2018-04-08T20:00:59.993Z,10.49
2018-04-08T20:03:26.578Z,10.46
2018-04-08T20:05:53.065Z,10.50
2018-04-08T20:08:19.845Z,10.43
2018-04-08T20:10:46.843Z,10.35
2018-04-08T20:13:13.413Z,10.64
2018-04-08T20:15:40.382Z,10.53
2018-04-08T20:18:08.292Z,10.56
2018-04-08T20:20:36.452Z,10.48
2018-04-08T20:23:04.055Z,10.38
2018-04-08T20:25:31.858Z,10.31
2018-04-08T20:27:58.514Z,10.26
2018-04-08T20:30:25.008Z,10.16
2018-04-08T20:32:51.579Z,10.07
2018-04-08T20:35:18.171Z,9.95
2018-04-08T20:37:44.925Z,9.78
2018-04-08T20:40:11.420Z,9.78
2018-04-08T20:42:37.925Z,9.61
2018-04-08T20:45:04.328Z,9.72
2018-04-08T20:47:30.977Z,10.02
2018-04-08T20:49:57.411Z,10.66
2018-04-08T20:52:23.839Z,10.57
2018-04-08T20:54:50.287Z,10.19
2018-04-08T20:57:18.349Z,9.94
2018-04-08T20:59:45.505Z,9.53
2018-04-08T21:02:12.085Z,9.35
2018-04-08T21:04:38.693Z,9.18
2018-04-08T21:07:05.275Z,9.07
2018-04-08T21:09:31.753Z,9.20
2018-04-08T21:11:58.236Z,9.12
2018-04-08T21:14:24.591Z,9.14
2018-04-08T21:16:51.049Z,9.32
2018-04-08T21:19:17.657Z,9.23
2018-04-08T21:21:44.214Z,9.26
2018-04-08T21:24:10.915Z,9.13
2018-04-08T21:26:37.371Z,9.06
2018-04-08T21:29:03.865Z,8.94
2018-04-08T21:31:30.278Z,9.04
2018-04-08T21:33:56.706Z,8.92
2018-04-08T21:36:23.248Z,9.04
2018-04-08T21:38:49.706Z,8.81
2018-04-08T21:41:16.242Z,8.72
2018-04-08T21:43:42.965Z,8.81
2018-04-08T21:46:09.854Z,8.61
2018-04-08T21:48:37.162Z,8.57
2018-04-08T21:51:03.766Z,8.54
2018-04-08T21:53:30.343Z,8.45
2018-04-08T21:55:57.070Z,8.34
2018-04-08T21:58:23.667Z,8.41
2018-04-08T22:00:50.798Z,8.36
2018-04-08T22:03:17.687Z,8.24
2018-04-08T22:05:44.965Z,8.14
2018-04-08T22:08:11.827Z,8.00
2018-04-08T22:10:39.176Z,7.94
2018-04-08T22:13:06.128Z,7.93
2018-04-08T22:15:32.573Z,7.92
2018-04-08T22:17:59.146Z,7.87
2018-04-08T22:20:25.752Z,7.90
2018-04-08T22:22:52.220Z,7.95
2018-04-08T22:25:18.684Z,7.77
2018-04-08T22:27:45.319Z,7.85
2018-04-08T22:30:11.831Z,7.90
2018-04-08T22:32:38.329Z,7.86
2018-04-08T22:35:04.870Z,7.91
2018-04-08T22:37:31.329Z,7.72
2018-04-08T22:39:57.737Z,7.76
2018-04-08T22:42:24.236Z,7.78
2018-04-08T22:44:50.591Z,7.64
2018-04-08T22:47:17.482Z,7.60
2018-04-08T22:49:44.520Z,7.61
2018-04-08T22:52:11.436Z,7.61
2018-04-08T22:54:39.308Z,7.58
2018-04-08T22:57:06.578Z,7.83
2018-04-08T22:59:33.972Z,7.96
2018-04-08T23:02:01.526Z,7.88
2018-04-08T23:04:28.084Z,7.76
2018-04-08T23:06:55.660Z,7.73
2018-04-08T23:09:22.154Z,8.02
2018-04-08T23:11:48.607Z,8.40
2018-04-08T23:14:14.994Z,8.72
2018-04-08T23:16:41.589Z,8.52
2018-04-08T23:19:07.931Z,8.38
2018-04-08T23:21:34.354Z,8.29
2018-04-08T23:24:00.862Z,8.07
2018-04-08T23:26:27.435Z,8.17
2018-04-08T23:28:53.838Z,8.17
2018-04-08T23:31:20.211Z,7.97
2018-04-08T23:33:46.594Z,7.74
2018-04-08T23:36:13.034Z,7.85
2018-04-08T23:38:39.418Z,7.85
2018-04-08T23:41:05.746Z,7.74
2018-04-08T23:43:32.408Z,7.71
2018-04-08T23:45:58.953Z,7.70
2018-04-08T23:48:25.363Z,7.60
2018-04-08T23:50:51.872Z,7.45
2018-04-08T23:53:18.434Z,7.29
2018-04-08T23:55:44.932Z,7.18
2018-04-08T23:58:11.524Z,7.13
